Time;durP1;ratioP1;P1;durP2;ratioP2;P2;SDS_P1;SDS_P2;PMS_P1;PMS_P2;Temp;Humidity;BMP_temperature;BMP_pressure;BME280_temperature;BME280_humidity;BME280_pressure;Samples;Min_cycle;Max_cycle;Signal;HPM_P1;HPM_P2
2023/01/21 00:01:05;;;;;;;49.42;27.30;;;1.60;99.90;;;;;;4990645;28;20215;-80
2023/01/21 00:03:32;;;;;;;49.70;29.30;;;1.60;99.90;;;;;;4989730;28;20214;-79
2023/01/21 00:05:59;;;;;;;54.35;29.92;;;1.60;99.90;;;;;;4981061;28;20330;-79
2023/01/21 00:08:26;;;;;;;59.55;30.35;;;1.60;99.90;;;;;;4989907;28;20210;-79
2023/01/21 00:10:55;;;;;;;46.88;28.17;;;1.60;99.90;;;;;;4991307;28;20206;-80
2023/01/21 00:13:22;;;;;;;52.20;29.27;;;1.60;99.90;;;;;;4987591;28;20298;-80
2023/01/21 00:15:49;;;;;;;50.60;28.10;;;1.60;99.90;;;;;;4990897;28;20293;-79
2023/01/21 00:18:16;;;;;;;59.85;30.20;;;1.60;99.90;;;;;;4979654;28;20221;-80
2023/01/21 00:20:44;;;;;;;52.05;28.85;;;1.50;99.90;;;;;;4982655;28;20580;-80
2023/01/21 00:23:12;;;;;;;58.42;28.33;;;1.50;99.90;;;;;;4984746;28;20199;-80
2023/01/21 00:25:38;;;;;;;57.67;27.85;;;1.50;99.90;;;;;;4987813;28;20746;-80
2023/01/21 00:28:07;;;;;;;52.92;28.90;;;1.40;99.90;;;;;;4983748;28;20309;-80
2023/01/21 00:30:35;;;;;;;57.70;29.85;;;1.40;99.90;;;;;;4974532;28;20216;-80
2023/01/21 00:33:03;;;;;;;54.67;28.40;;;1.40;99.90;;;;;;4982590;28;20213;-80
2023/01/21 00:35:30;;;;;;;58.35;30.30;;;1.50;99.90;;;;;;4982592;28;20264;-80
2023/01/21 00:37:57;;;;;;;59.35;28.90;;;1.50;99.90;;;;;;4989223;28;20251;-81
2023/01/21 00:40:24;;;;;;;54.13;27.42;;;1.60;99.90;;;;;;4975221;28;20199;-80
2023/01/21 00:42:51;;;;;;;57.33;30.00;;;1.70;99.90;;;;;;4990800;28;20291;-79
2023/01/21 00:45:19;;;;;;;60.60;30.17;;;1.70;99.90;;;;;;4968812;28;20249;-80
2023/01/21 00:47:46;;;;;;;57.90;30.83;;;1.90;99.90;;;;;;4978083;28;20285;-81
2023/01/21 00:50:13;;;;;;;52.83;26.27;;;1.90;99.90;;;;;;4976834;28;20265;-80
2023/01/21 00:52:40;;;;;;;57.10;28.77;;;1.90;99.90;;;;;;4978141;28;20207;-80
2023/01/21 00:55:07;;;;;;;64.20;32.17;;;2.00;99.90;;;;;;4983931;28;20213;-80
2023/01/21 00:57:34;;;;;;;50.13;26.52;;;2.10;99.90;;;;;;4990165;28;20225;-80
2023/01/21 01:00:02;;;;;;;59.50;30.70;;;2.10;99.90;;;;;;4981246;28;20213;-79
2023/01/21 01:02:30;;;;;;;43.95;25.00;;;2.20;99.90;;;;;;4977630;28;20319;-79
2023/01/21 01:04:57;;;;;;;54.03;28.63;;;2.30;99.90;;;;;;4980798;28;20275;-80
2023/01/21 01:07:24;;;;;;;46.22;28.95;;;2.40;99.90;;;;;;4970586;28;20264;-80
2023/01/21 01:09:50;;;;;;;60.28;29.90;;;2.50;99.90;;;;;;4983541;28;20232;-80
2023/01/21 01:12:17;;;;;;;50.60;26.33;;;2.50;99.90;;;;;;4992500;28;20293;-80
2023/01/21 01:14:44;;;;;;;55.15;26.85;;;2.60;99.90;;;;;;4982529;28;20198;-80
2023/01/21 01:17:14;;;;;;;46.40;25.52;;;2.60;99.90;;;;;;4978181;28;20641;-78
2023/01/21 01:19:42;;;;;;;45.72;23.40;;;2.70;99.90;;;;;;4977459;28;20603;-79
2023/01/21 01:22:09;;;;;;;52.28;27.20;;;2.70;99.90;;;;;;4978451;28;20271;-80
2023/01/21 01:24:36;;;;;;;45.38;24.42;;;2.70;99.90;;;;;;4978725;28;20236;-80
2023/01/21 01:27:03;;;;;;;48.20;23.52;;;2.80;99.90;;;;;;4981954;28;20234;-80
2023/01/21 01:29:30;;;;;;;51.40;26.27;;;2.80;99.90;;;;;;4982804;28;20580;-79
2023/01/21 01:31:56;;;;;;;37.75;22.27;;;2.90;99.90;;;;;;4980125;28;20270;-79
2023/01/21 01:34:23;;;;;;;44.60;23.73;;;2.90;99.90;;;;;;4987373;28;20210;-78
2023/01/21 01:36:52;;;;;;;36.97;22.10;;;3.00;99.90;;;;;;5002158;28;20213;-80
2023/01/21 01:39:25;;;;;;;42.97;24.50;;;3.00;99.90;;;;;;5009764;28;20190;-79
2023/01/21 01:41:53;;;;;;;36.03;21.25;;;3.00;99.90;;;;;;5007512;28;20236;-79
2023/01/21 01:44:58;;;;;;;42.28;24.02;;;3.10;99.90;;;;;;4992844;28;20233;-79
2023/01/21 01:47:31;;;;;;;42.60;24.35;;;3.10;99.90;;;;;;4994713;28;20761;-80
2023/01/21 01:50:00;;;;;;;40.28;23.95;;;3.20;99.90;;;;;;4985723;28;20269;-81
2023/01/21 01:52:29;;;;;;;40.65;22.65;;;3.20;99.90;;;;;;4984597;28;20209;-78
2023/01/21 01:54:59;;;;;;;44.97;24.38;;;3.10;99.90;;;;;;4987569;28;20233;-78
2023/01/21 01:57:33;;;;;;;39.85;23.70;;;3.10;99.90;;;;;;4992804;28;20213;-79
2023/01/21 02:00:03;;;;;;;35.40;19.92;;;3.20;99.90;;;;;;4985542;28;20202;-79
2023/01/21 02:02:31;;;;;;;39.22;22.00;;;3.30;99.90;;;;;;4966971;28;20236;-80
2023/01/21 02:05:01;;;;;;;35.00;20.40;;;3.20;99.90;;;;;;4983336;28;20217;-80
2023/01/21 02:07:38;;;;;;;38.75;22.90;;;3.30;99.90;;;;;;4979897;28;20221;-79
2023/01/21 02:10:07;;;;;;;39.85;21.48;;;3.20;99.90;;;;;;4987402;28;20244;-79
2023/01/21 02:12:34;;;;;;;39.80;20.98;;;3.30;99.90;;;;;;4993773;28;20205;-79
2023/01/21 02:15:03;;;;;;;43.03;21.70;;;3.30;99.90;;;;;;4988427;28;20263;-79
2023/01/21 02:17:41;;;;;;;39.10;19.45;;;3.40;99.90;;;;;;4973443;28;20773;-79
2023/01/21 02:20:56;;;;;;;40.33;21.83;;;3.30;99.90;;;;;;4988321;28;20259;-80
2023/01/21 02:23:38;;;;;;;42.75;22.02;;;3.10;99.90;;;;;;4984266;28;20236;-79
2023/01/21 02:26:47;;;;;;;36.22;21.48;;;3.40;99.90;;;;;;4984432;28;20285;-80
2023/01/21 02:29:57;;;;;;;44.30;23.77;;;3.40;99.90;;;;;;4992653;28;20224;-77
2023/01/21 02:33:07;;;;;;;47.22;23.08;;;3.30;99.90;;;;;;4996580;28;20186;-78
2023/01/21 02:35:42;;;;;;;44.83;24.33;;;3.30;99.90;;;;;;4979394;28;20209;-78
2023/01/21 02:38:13;;;;;;;44.25;22.52;;;3.30;99.90;;;;;;4985225;28;20324;-79
2023/01/21 02:40:59;;;;;;;44.05;23.08;;;3.30;99.90;;;;;;4982173;28;20231;-79
2023/01/21 02:43:32;;;;;;;46.13;26.20;;;3.30;99.90;;;;;;4990843;28;20213;-78
2023/01/21 02:46:04;;;;;;;41.28;23.50;;;3.30;99.90;;;;;;4996609;28;20206;-79
2023/01/21 02:48:35;;;;;;;41.70;22.40;;;3.40;99.90;;;;;;4989947;28;20265;-80
2023/01/21 02:51:05;;;;;;;49.60;24.55;;;3.40;99.90;;;;;;4983870;28;20228;-79
2023/01/21 02:53:34;;;;;;;45.95;25.52;;;3.40;99.90;;;;;;4997027;28;20206;-79
2023/01/21 02:56:05;;;;;;;41.72;23.92;;;3.30;99.90;;;;;;4988589;28;20273;-79
2023/01/21 02:58:36;;;;;;;38.20;23.17;;;3.30;99.90;;;;;;4978841;28;20194;-79
2023/01/21 03:01:14;;;;;;;43.85;25.05;;;3.20;99.90;;;;;;4986772;28;20218;-79
2023/01/21 03:04:11;;;;;;;43.70;25.25;;;3.20;99.90;;;;;;4968307;28;20551;-79
2023/01/21 03:06:59;;;;;;;40.47;24.42;;;3.10;99.90;;;;;;4958268;28;20320;-79
2023/01/21 03:09:28;;;;;;;41.97;25.08;;;3.10;99.90;;;;;;4984259;28;20202;-78
2023/01/21 03:12:07;;;;;;;44.53;24.05;;;3.20;99.90;;;;;;4984110;28;20245;-78
2023/01/21 03:17:34;;;;;;;47.55;24.35;;;3.20;99.90;;;;;;4968644;28;20232;-79
2023/01/21 03:20:08;;;;;;;48.88;26.40;;;3.20;99.90;;;;;;4985187;28;20289;-79
2023/01/21 03:22:38;;;;;;;45.30;23.55;;;3.30;99.90;;;;;;4983724;28;20202;-78
2023/01/21 03:25:07;;;;;;;43.03;22.48;;;3.20;99.90;;;;;;4985649;28;20238;-78
2023/01/21 03:27:38;;;;;;;47.22;24.65;;;3.30;99.90;;;;;;4979982;28;20230;-80
2023/01/21 03:30:10;;;;;;;48.17;24.30;;;3.30;99.90;;;;;;4979917;28;20310;-79
2023/01/21 03:32:39;;;;;;;42.78;24.77;;;3.40;99.90;;;;;;4977925;28;20206;-79
2023/01/21 03:35:08;;;;;;;44.17;24.30;;;3.40;99.90;;;;;;4988227;28;20233;-79
2023/01/21 03:37:41;;;;;;;41.33;26.17;;;3.40;99.90;;;;;;4979085;28;20244;-78
2023/01/21 03:40:17;;;;;;;42.60;23.08;;;3.40;99.90;;;;;;4990149;28;20204;-78
2023/01/21 03:42:45;;;;;;;43.08;25.92;;;3.40;99.90;;;;;;4981182;28;20198;-79
2023/01/21 03:45:14;;;;;;;48.75;25.27;;;3.50;99.90;;;;;;4990896;28;20205;-79
2023/01/21 03:47:44;;;;;;;45.15;25.00;;;3.50;99.90;;;;;;4979912;28;20605;-80
2023/01/21 03:50:15;;;;;;;39.17;22.45;;;3.60;99.90;;;;;;4995317;28;20205;-79
2023/01/21 03:52:44;;;;;;;36.00;22.30;;;3.70;99.90;;;;;;4988717;28;20231;-80
2023/01/21 03:55:13;;;;;;;36.28;24.70;;;3.70;99.90;;;;;;4988354;28;20212;-80
2023/01/21 03:57:40;;;;;;;46.97;24.17;;;3.60;99.90;;;;;;4992581;28;20262;-80
2023/01/21 04:00:09;;;;;;;44.00;24.02;;;3.50;99.90;;;;;;4987539;28;20203;-79
2023/01/21 04:02:36;;;;;;;49.45;23.40;;;3.30;99.90;;;;;;4995580;28;20285;-79
2023/01/21 04:05:03;;;;;;;41.33;21.38;;;3.20;99.90;;;;;;4989259;28;20233;-80
2023/01/21 04:07:30;;;;;;;38.45;23.05;;;3.10;99.90;;;;;;4989738;28;20221;-79
2023/01/21 04:09:58;;;;;;;44.58;24.30;;;3.00;99.90;;;;;;4990118;28;20643;-79
2023/01/21 04:12:25;;;;;;;45.45;25.33;;;3.00;99.90;;;;;;4987860;28;20641;-79
2023/01/21 04:14:52;;;;;;;42.75;25.55;;;3.00;99.90;;;;;;4982487;28;20206;-79
2023/01/21 04:17:19;;;;;;;43.22;23.73;;;3.10;99.90;;;;;;4987986;28;20313;-79
2023/01/21 04:19:45;;;;;;;43.65;24.05;;;3.20;99.90;;;;;;4993741;28;20229;-79
2023/01/21 04:22:12;;;;;;;47.85;24.85;;;3.20;99.90;;;;;;4992199;28;20270;-79
2023/01/21 04:24:39;;;;;;;42.22;23.67;;;3.20;99.90;;;;;;4979464;28;20234;-79
2023/01/21 04:27:07;;;;;;;44.22;25.27;;;3.20;99.90;;;;;;4980807;28;20303;-79
2023/01/21 04:29:34;;;;;;;42.30;22.48;;;3.20;99.90;;;;;;5009123;28;20193;-79
2023/01/21 04:32:01;;;;;;;46.53;24.08;;;3.20;99.90;;;;;;4979861;28;20202;-78
2023/01/21 04:34:28;;;;;;;50.90;26.25;;;3.20;99.90;;;;;;4992841;28;20580;-79
2023/01/21 04:36:55;;;;;;;41.78;22.70;;;3.20;99.90;;;;;;4997092;28;20250;-79
2023/01/21 04:39:22;;;;;;;45.22;23.85;;;3.20;99.90;;;;;;5001956;28;20265;-78
2023/01/21 04:41:48;;;;;;;48.78;25.67;;;3.00;99.90;;;;;;5002796;28;20183;-78
2023/01/21 04:44:17;;;;;;;42.03;24.10;;;2.90;99.90;;;;;;5001937;28;20214;-79
2023/01/21 04:46:43;;;;;;;46.08;25.08;;;2.90;99.90;;;;;;5010583;28;20205;-79
2023/01/21 04:49:10;;;;;;;55.60;24.20;;;2.90;99.90;;;;;;4995515;28;20259;-79
2023/01/21 04:51:37;;;;;;;51.22;26.33;;;2.90;99.90;;;;;;5004023;28;20229;-79
2023/01/21 04:54:04;;;;;;;50.80;27.30;;;2.70;99.90;;;;;;5004192;28;20265;-79
2023/01/21 04:56:31;;;;;;;43.10;24.02;;;2.70;99.90;;;;;;4999084;28;20221;-80
2023/01/21 04:58:58;;;;;;;48.90;25.23;;;2.80;99.90;;;;;;5003279;28;20233;-79
2023/01/21 05:01:26;;;;;;;46.33;26.20;;;2.60;99.90;;;;;;4991549;28;20261;-78
2023/01/21 05:03:53;;;;;;;43.05;25.35;;;2.60;99.90;;;;;;4995751;28;20274;-78
2023/01/21 05:06:19;;;;;;;43.47;24.88;;;2.70;99.90;;;;;;4984472;28;20624;-77
2023/01/21 05:08:46;;;;;;;48.80;25.75;;;2.80;99.90;;;;;;4995407;28;20230;-79
2023/01/21 05:11:17;;;;;;;48.00;26.38;;;3.00;99.90;;;;;;4989196;28;20214;-78
2023/01/21 05:13:44;;;;;;;54.40;25.65;;;2.90;99.90;;;;;;4999330;28;20199;-79
2023/01/21 05:16:13;;;;;;;51.03;28.63;;;2.80;99.90;;;;;;5000918;28;20264;-79
2023/01/21 05:18:41;;;;;;;47.70;26.98;;;2.70;99.90;;;;;;4992303;28;20210;-79
2023/01/21 05:21:08;;;;;;;59.08;25.95;;;2.70;99.90;;;;;;4986545;28;20315;-80
2023/01/21 05:23:34;;;;;;;49.08;25.73;;;2.70;99.90;;;;;;4986135;28;20245;-79
2023/01/21 05:26:01;;;;;;;48.78;24.63;;;2.70;99.90;;;;;;4994663;28;20213;-79
2023/01/21 05:28:28;;;;;;;54.67;29.63;;;2.70;99.90;;;;;;4993369;28;20226;-77
2023/01/21 05:30:59;;;;;;;54.42;27.88;;;2.70;99.90;;;;;;4991029;28;20198;-78
2023/01/21 05:33:30;;;;;;;60.35;30.02;;;2.80;99.90;;;;;;4992232;28;20234;-78
2023/01/21 05:35:58;;;;;;;58.20;32.40;;;2.90;99.90;;;;;;4978273;28;20240;-78
2023/01/21 05:38:25;;;;;;;67.65;32.55;;;3.00;99.90;;;;;;4979949;28;20203;-78
2023/01/21 05:40:57;;;;;;;64.07;34.45;;;3.00;99.90;;;;;;4972376;28;20294;-78
2023/01/21 05:43:24;;;;;;;58.00;33.17;;;3.00;99.90;;;;;;4972802;28;20230;-79
2023/01/21 05:45:51;;;;;;;58.88;33.20;;;3.00;99.90;;;;;;4980640;28;20270;-78
2023/01/21 05:48:18;;;;;;;60.33;31.17;;;3.00;99.90;;;;;;4980623;28;20218;-79
2023/01/21 05:50:45;;;;;;;57.97;33.05;;;2.90;99.90;;;;;;4979339;28;20297;-79
2023/01/21 05:53:13;;;;;;;57.03;29.52;;;2.90;99.90;;;;;;4981089;28;20609;-79
2023/01/21 05:55:40;;;;;;;51.60;27.92;;;2.90;99.90;;;;;;4982478;28;20288;-79
2023/01/21 05:58:07;;;;;;;52.78;29.00;;;2.90;99.90;;;;;;4979888;28;20336;-79
2023/01/21 06:00:34;;;;;;;60.38;29.35;;;2.90;99.90;;;;;;4980204;28;20198;-78
2023/01/21 06:03:02;;;;;;;59.83;31.55;;;3.00;99.90;;;;;;4978762;28;20662;-78
2023/01/21 06:05:29;;;;;;;51.88;27.45;;;3.00;99.90;;;;;;4975921;28;20293;-78
2023/01/21 06:07:56;;;;;;;54.88;28.42;;;3.00;99.90;;;;;;4977663;28;20285;-79
2023/01/21 06:10:24;;;;;;;56.15;29.75;;;3.00;99.90;;;;;;4977836;28;20249;-79
2023/01/21 06:12:52;;;;;;;60.38;28.23;;;3.10;99.90;;;;;;4978569;28;20217;-80
2023/01/21 06:15:19;;;;;;;53.10;27.27;;;3.10;99.90;;;;;;4980992;28;20256;-79
2023/01/21 06:17:46;;;;;;;45.65;25.88;;;3.10;99.90;;;;;;4973023;28;20222;-79
2023/01/21 06:20:13;;;;;;;61.55;27.10;;;3.10;99.90;;;;;;4975713;28;20244;-79
2023/01/21 06:22:40;;;;;;;55.70;27.27;;;3.10;99.90;;;;;;4972201;28;20241;-79
2023/01/21 06:25:07;;;;;;;48.88;26.52;;;3.10;99.90;;;;;;4973585;28;20551;-79
2023/01/21 06:27:37;;;;;;;51.58;26.90;;;3.10;99.90;;;;;;4989307;28;20323;-79
2023/01/21 06:30:05;;;;;;;50.72;25.92;;;3.10;99.90;;;;;;4985652;28;20657;-79
2023/01/21 06:32:32;;;;;;;51.30;26.55;;;3.10;99.90;;;;;;4991471;28;20198;-79
2023/01/21 06:34:59;;;;;;;47.90;26.95;;;3.30;99.90;;;;;;4998652;28;20239;-78
2023/01/21 06:37:26;;;;;;;51.67;26.13;;;3.00;99.90;;;;;;4995770;28;20225;-78
2023/01/21 06:39:53;;;;;;;57.38;28.42;;;3.20;99.90;;;;;;5001401;28;20271;-79
2023/01/21 06:42:20;;;;;;;53.47;27.02;;;3.20;99.90;;;;;;4988466;28;20238;-78
2023/01/21 06:44:48;;;;;;;51.65;27.55;;;3.30;99.90;;;;;;5003295;28;20218;-78
2023/01/21 06:47:16;;;;;;;55.58;26.90;;;3.20;99.90;;;;;;4996629;28;20268;-79
2023/01/21 06:49:43;;;;;;;54.53;26.55;;;3.10;99.90;;;;;;4988499;28;20241;-80
2023/01/21 06:52:10;;;;;;;54.22;27.48;;;3.30;99.90;;;;;;5004307;28;20209;-80
2023/01/21 06:54:37;;;;;;;54.75;27.92;;;3.20;99.90;;;;;;5007671;28;20197;-78
2023/01/21 06:57:04;;;;;;;59.08;26.42;;;3.30;99.90;;;;;;4998554;28;20233;-79
2023/01/21 06:59:30;;;;;;;49.72;26.98;;;3.40;99.90;;;;;;4999559;28;20262;-79
2023/01/21 07:01:59;;;;;;;58.67;24.95;;;3.20;99.90;;;;;;5005802;28;20199;-79
2023/01/21 07:04:26;;;;;;;57.25;27.10;;;3.20;99.90;;;;;;4998050;28;20222;-78
2023/01/21 07:06:53;;;;;;;48.45;26.00;;;3.20;99.90;;;;;;5006378;28;20273;-79
2023/01/21 07:09:20;;;;;;;55.35;27.50;;;3.20;99.90;;;;;;4998518;28;20211;-77
2023/01/21 07:11:47;;;;;;;45.25;25.17;;;3.20;99.90;;;;;;4991531;28;20210;-76
2023/01/21 07:14:14;;;;;;;48.65;26.33;;;3.30;99.90;;;;;;5008036;28;20225;-76
2023/01/21 07:16:41;;;;;;;51.55;27.35;;;3.40;99.90;;;;;;4990997;28;20687;-77
2023/01/21 07:19:10;;;;;;;49.47;27.80;;;3.40;99.90;;;;;;4991716;28;20229;-77
2023/01/21 07:21:40;;;;;;;54.55;27.98;;;3.50;99.90;;;;;;4990550;28;20206;-81
2023/01/21 07:24:07;;;;;;;59.33;27.77;;;3.60;99.90;;;;;;5002154;28;20214;-80
2023/01/21 07:26:36;;;;;;;47.53;24.63;;;3.60;99.90;;;;;;4988607;28;20203;-79
2023/01/21 07:29:04;;;;;;;48.28;26.15;;;3.60;99.90;;;;;;5006254;28;20238;-80
2023/01/21 07:31:31;;;;;;;47.83;25.80;;;3.50;99.90;;;;;;4998799;28;20190;-79
2023/01/21 07:33:57;;;;;;;43.10;23.05;;;3.50;99.90;;;;;;4981113;28;20775;-80
2023/01/21 07:36:26;;;;;;;50.10;25.60;;;3.40;99.90;;;;;;4999199;28;20285;-79
2023/01/21 07:38:55;;;;;;;52.88;25.80;;;3.40;99.90;;;;;;4996633;28;20186;-78
2023/01/21 07:41:22;;;;;;;45.13;26.45;;;3.30;99.90;;;;;;5002039;28;20202;-78
2023/01/21 07:43:49;;;;;;;47.03;22.88;;;3.30;99.90;;;;;;4996387;28;20201;-79
2023/01/21 07:46:16;;;;;;;52.70;25.67;;;3.30;99.90;;;;;;4978426;28;20223;-79
2023/01/21 07:48:43;;;;;;;40.58;23.58;;;3.20;99.90;;;;;;4983487;28;20316;-79
2023/01/21 07:51:11;;;;;;;42.95;23.85;;;3.20;99.90;;;;;;4978035;28;20214;-85
2023/01/21 07:53:39;;;;;;;41.72;22.83;;;3.30;99.90;;;;;;4978926;28;20658;-85
2023/01/21 07:56:07;;;;;;;41.17;23.35;;;3.50;99.90;;;;;;4980852;28;20242;-84
2023/01/21 07:58:37;;;;;;;39.13;20.30;;;3.50;99.90;;;;;;4985139;28;20261;-85
2023/01/21 08:01:06;;;;;;;48.20;23.17;;;3.70;99.90;;;;;;4986601;28;20261;-84
2023/01/21 08:03:33;;;;;;;42.30;22.40;;;3.60;99.90;;;;;;4980767;28;20226;-80
2023/01/21 08:06:00;;;;;;;46.70;22.75;;;3.60;99.90;;;;;;4974335;28;20206;-81
2023/01/21 08:08:27;;;;;;;43.60;23.40;;;3.70;99.90;;;;;;4985684;28;20927;-81
2023/01/21 08:10:55;;;;;;;38.40;22.55;;;3.70;99.90;;;;;;4985507;28;20292;-81
2023/01/21 08:13:23;;;;;;;40.83;22.55;;;3.70;99.90;;;;;;4986053;28;20220;-81
2023/01/21 08:15:50;;;;;;;40.13;22.70;;;3.90;99.90;;;;;;4979372;28;20278;-81
2023/01/21 08:18:17;;;;;;;45.45;22.58;;;4.10;99.90;;;;;;4989086;28;20285;-82
2023/01/21 08:20:44;;;;;;;34.40;21.20;;;4.00;99.90;;;;;;4978419;28;20199;-81
2023/01/21 08:23:11;;;;;;;44.05;24.95;;;4.00;99.90;;;;;;4988210;28;20713;-80
2023/01/21 08:25:39;;;;;;;51.47;24.00;;;4.20;99.90;;;;;;4981330;28;20244;-83
2023/01/21 08:28:07;;;;;;;39.67;24.02;;;4.30;99.90;;;;;;4986317;28;20284;-81
2023/01/21 08:30:34;;;;;;;43.85;24.50;;;4.30;99.90;;;;;;4991547;28;20237;-80
2023/01/21 08:33:01;;;;;;;41.28;22.55;;;4.30;99.90;;;;;;4981338;28;20245;-78
2023/01/21 08:35:27;;;;;;;37.17;21.70;;;4.30;99.90;;;;;;4986893;28;20266;-81
2023/01/21 08:37:55;;;;;;;44.85;23.50;;;4.30;99.90;;;;;;4964979;28;20246;-81
2023/01/21 08:40:22;;;;;;;44.35;23.23;;;4.20;99.90;;;;;;4992921;28;20217;-80
2023/01/21 08:42:49;;;;;;;42.38;23.00;;;4.30;99.90;;;;;;4990117;28;20226;-79
2023/01/21 08:45:17;;;;;;;57.97;22.67;;;4.30;99.90;;;;;;4989535;28;20240;-80
2023/01/21 08:47:44;;;;;;;38.63;21.48;;;4.30;99.90;;;;;;4982303;28;20229;-80
2023/01/21 08:50:11;;;;;;;45.15;24.83;;;4.30;99.90;;;;;;4980211;28;20247;-81
2023/01/21 08:52:38;;;;;;;42.22;23.58;;;4.30;99.90;;;;;;4979590;28;20211;-80
2023/01/21 08:55:06;;;;;;;40.05;22.20;;;4.30;99.90;;;;;;4983526;28;20263;-82
2023/01/21 08:57:33;;;;;;;46.90;23.98;;;4.30;99.90;;;;;;4994569;28;20313;-80
2023/01/21 09:00:00;;;;;;;40.10;22.63;;;4.30;99.90;;;;;;4992796;28;20683;-81
2023/01/21 09:02:28;;;;;;;47.28;24.85;;;4.40;99.90;;;;;;4980781;28;20647;-81
2023/01/21 09:04:55;;;;;;;51.30;25.92;;;4.50;99.90;;;;;;4987372;28;20206;-81
2023/01/21 09:07:22;;;;;;;42.13;23.05;;;4.60;99.90;;;;;;4979791;28;20310;-80
2023/01/21 09:09:49;;;;;;;43.92;24.92;;;4.70;99.90;;;;;;4986056;28;20522;-81
2023/01/21 09:12:16;;;;;;;41.05;22.13;;;4.70;99.90;;;;;;4982929;28;20203;-80
2023/01/21 09:14:43;;;;;;;43.05;24.05;;;4.80;99.90;;;;;;4979871;28;20267;-80
2023/01/21 09:17:10;;;;;;;45.60;22.98;;;4.80;99.90;;;;;;4988543;28;20255;-80
2023/01/21 09:19:38;;;;;;;43.05;22.58;;;4.80;99.90;;;;;;4981060;28;20622;-81
2023/01/21 09:22:06;;;;;;;43.80;25.88;;;5.00;99.90;;;;;;4973229;28;20285;-82
2023/01/21 09:24:33;;;;;;;53.50;27.70;;;5.00;99.90;;;;;;4969377;28;20214;-80
2023/01/21 09:27:00;;;;;;;46.35;23.80;;;5.00;99.90;;;;;;4983041;28;20223;-82
2023/01/21 09:29:27;;;;;;;45.28;24.20;;;5.00;99.90;;;;;;4984506;28;20231;-81
2023/01/21 09:31:54;;;;;;;52.33;25.67;;;5.00;99.90;;;;;;4986917;28;20201;-81
2023/01/21 09:34:21;;;;;;;44.20;24.95;;;4.90;99.90;;;;;;4981765;28;20203;-82
2023/01/21 09:36:49;;;;;;;49.13;26.67;;;5.00;99.90;;;;;;4996236;28;20225;-81
2023/01/21 09:39:16;;;;;;;49.72;25.63;;;4.80;99.90;;;;;;4985111;28;20229;-82
2023/01/21 09:41:45;;;;;;;45.55;23.85;;;4.80;99.90;;;;;;4994813;28;20226;-80
2023/01/21 09:44:22;;;;;;;44.10;26.45;;;4.90;99.90;;;;;;4987221;28;20640;-81
2023/01/21 09:46:55;;;;;;;45.42;25.60;;;4.90;99.90;;;;;;4990479;28;20245;-81
2023/01/21 09:49:26;;;;;;;43.10;24.20;;;4.90;99.90;;;;;;4989636;28;20293;-81
2023/01/21 09:52:03;;;;;;;42.20;23.38;;;4.90;99.90;;;;;;4979872;28;20218;-80
2023/01/21 09:54:32;;;;;;;43.05;23.63;;;4.90;99.90;;;;;;4977237;28;20293;-81
2023/01/21 09:57:38;;;;;;;44.25;23.95;;;4.90;99.90;;;;;;4993213;28;20310;-82
2023/01/21 10:00:33;;;;;;;46.97;23.45;;;5.00;99.90;;;;;;4986858;28;20230;-82
2023/01/21 10:03:11;;;;;;;46.38;23.45;;;5.00;99.90;;;;;;4982416;28;20314;-80
2023/01/21 10:06:08;;;;;;;52.03;24.33;;;5.00;99.90;;;;;;4985810;28;20230;-83
2023/01/21 10:08:49;;;;;;;43.92;22.92;;;5.20;99.90;;;;;;4993060;28;20208;-80
2023/01/21 10:11:30;;;;;;;48.83;24.75;;;5.40;99.90;;;;;;4987000;28;20210;-81
2023/01/21 10:14:19;;;;;;;41.00;21.92;;;5.60;99.90;;;;;;4986366;28;20214;-81
2023/01/21 10:16:57;;;;;;;41.78;23.13;;;5.50;99.90;;;;;;4987219;28;20249;-80
2023/01/21 10:19:33;;;;;;;42.92;23.13;;;5.40;99.90;;;;;;4987209;28;20238;-81
2023/01/21 10:22:05;;;;;;;45.10;26.25;;;5.40;99.90;;;;;;4995942;28;20288;-80
2023/01/21 10:24:38;;;;;;;45.17;23.40;;;5.30;99.90;;;;;;4997250;28;20209;-80
2023/01/21 10:27:05;;;;;;;42.63;23.38;;;5.30;99.90;;;;;;4989575;28;20250;-81
2023/01/21 10:29:35;;;;;;;42.67;24.15;;;5.20;99.90;;;;;;4982294;28;20286;-81
2023/01/21 10:32:07;;;;;;;47.75;24.30;;;5.30;99.90;;;;;;4986322;28;20270;-83
2023/01/21 10:34:40;;;;;;;44.05;24.48;;;5.30;99.90;;;;;;5002096;28;20221;-81
2023/01/21 10:37:15;;;;;;;49.75;25.10;;;5.30;99.90;;;;;;4981009;28;20767;-80
2023/01/21 10:39:51;;;;;;;49.88;25.23;;;5.40;99.90;;;;;;4977153;28;20229;-82
2023/01/21 10:42:44;;;;;;;41.83;21.55;;;5.60;99.90;;;;;;4997282;28;20691;-81
2023/01/21 10:45:21;;;;;;;49.97;24.05;;;5.70;99.90;;;;;;4982545;28;20203;-81
2023/01/21 10:47:54;;;;;;;40.05;25.08;;;5.80;99.90;;;;;;4985354;28;20248;-83
2023/01/21 10:50:38;;;;;;;39.20;22.02;;;6.00;99.90;;;;;;4979064;28;20221;-82
2023/01/21 10:53:13;;;;;;;48.17;24.88;;;6.10;99.90;;;;;;4995296;28;20286;-81
2023/01/21 10:55:53;;;;;;;48.53;24.20;;;5.90;99.90;;;;;;4995663;28;20662;-81
2023/01/21 10:58:25;;;;;;;42.10;23.83;;;5.80;99.90;;;;;;4980677;28;20215;-82
2023/01/21 11:00:54;;;;;;;47.05;24.15;;;5.70;99.90;;;;;;4999572;28;20215;-82
2023/01/21 11:03:33;;;;;;;51.05;24.73;;;5.70;99.90;;;;;;4985858;28;20266;-80
2023/01/21 11:06:03;;;;;;;42.85;22.60;;;5.70;99.90;;;;;;4984093;28;20216;-82
2023/01/21 11:08:30;;;;;;;45.65;24.35;;;5.60;99.90;;;;;;4987232;28;20206;-82
2023/01/21 11:11:00;;;;;;;45.72;23.10;;;5.50;99.90;;;;;;4993996;28;20223;-81
2023/01/21 11:13:27;;;;;;;45.00;25.30;;;5.40;99.90;;;;;;4980891;28;20246;-82
2023/01/21 11:15:56;;;;;;;44.85;23.30;;;5.40;99.90;;;;;;4987357;28;20683;-82
2023/01/21 11:18:33;;;;;;;43.30;24.75;;;5.30;99.90;;;;;;4990905;28;20220;-81
2023/01/21 11:21:02;;;;;;;41.13;24.33;;;5.30;99.90;;;;;;4983929;28;20205;-81
2023/01/21 11:23:33;;;;;;;43.45;24.48;;;5.30;99.90;;;;;;4995225;28;20237;-81
2023/01/21 11:26:04;;;;;;;45.95;24.77;;;5.40;99.90;;;;;;4996063;28;20207;-81
2023/01/21 11:28:31;;;;;;;43.65;22.02;;;5.50;99.90;;;;;;4990675;28;20359;-82
2023/01/21 11:31:10;;;;;;;48.20;25.08;;;5.40;99.90;;;;;;4979270;28;20231;-82
2023/01/21 11:33:38;;;;;;;52.33;27.40;;;5.30;99.90;;;;;;4994306;28;20261;-80
2023/01/21 11:36:14;;;;;;;46.05;24.95;;;5.30;99.90;;;;;;4977404;28;20310;-82
2023/01/21 11:38:41;;;;;;;45.35;24.00;;;5.10;99.90;;;;;;4984772;28;20211;-82
2023/01/21 11:41:20;;;;;;;43.90;22.42;;;5.10;99.90;;;;;;4992581;28;20210;-84
2023/01/21 11:43:49;;;;;;;44.08;24.13;;;5.20;99.90;;;;;;4988558;28;20202;-82
2023/01/21 11:46:28;;;;;;;45.45;24.85;;;5.20;99.90;;;;;;4997121;28;20229;-81
2023/01/21 11:48:56;;;;;;;42.08;23.05;;;5.10;99.90;;;;;;4995186;28;20191;-81
2023/01/21 11:51:23;;;;;;;40.35;24.10;;;5.00;99.90;;;;;;4999902;28;20210;-82
2023/01/21 11:54:08;;;;;;;44.88;25.92;;;4.80;99.90;;;;;;4987082;28;20210;-82
2023/01/21 11:56:36;;;;;;;39.85;22.60;;;4.90;99.90;;;;;;4990727;28;20277;-82
2023/01/21 11:59:12;;;;;;;39.13;22.10;;;4.80;99.90;;;;;;4992357;28;20213;-81
2023/01/21 12:01:39;;;;;;;40.22;22.98;;;4.90;99.90;;;;;;4983934;28;20538;-82
2023/01/21 12:04:06;;;;;;;43.60;24.38;;;4.90;99.90;;;;;;4970285;28;20253;-81
2023/01/21 12:06:34;;;;;;;44.88;23.00;;;4.90;99.90;;;;;;4994447;28;20249;-80
2023/01/21 12:09:06;;;;;;;48.25;22.17;;;4.90;99.90;;;;;;4992881;28;20229;-82
2023/01/21 12:11:33;;;;;;;40.38;21.08;;;4.90;99.90;;;;;;4992333;28;20258;-83
2023/01/21 12:14:09;;;;;;;45.42;21.30;;;4.90;99.90;;;;;;4992448;28;20195;-81
2023/01/21 12:16:59;;;;;;;47.25;21.15;;;4.80;99.90;;;;;;4995690;28;20261;-81
2023/01/21 12:19:40;;;;;;;53.92;23.33;;;4.90;99.90;;;;;;5002788;28;20262;-81
2023/01/21 12:22:33;;;;;;;48.55;23.55;;;4.70;99.90;;;;;;5005437;28;20202;-81
2023/01/21 12:25:18;;;;;;;44.30;21.40;;;4.70;99.90;;;;;;5001962;28;20197;-81
2023/01/21 12:27:54;;;;;;;41.60;21.63;;;4.80;99.90;;;;;;4995924;28;20304;-80
2023/01/21 12:30:32;;;;;;;44.60;22.55;;;4.80;99.90;;;;;;5004641;28;20226;-81
2023/01/21 12:33:03;;;;;;;41.20;21.15;;;4.80;99.90;;;;;;4984749;28;20230;-81
2023/01/21 12:35:36;;;;;;;40.85;20.45;;;4.70;99.90;;;;;;4997937;28;20324;-81
2023/01/21 12:38:07;;;;;;;41.88;19.13;;;4.90;99.90;;;;;;4978212;28;20314;-81
2023/01/21 12:40:40;;;;;;;35.30;18.27;;;4.80;99.90;;;;;;4993624;28;20245;-80
2023/01/21 12:43:16;;;;;;;39.63;21.38;;;4.80;99.90;;;;;;4996064;28;20210;-82
2023/01/21 12:45:47;;;;;;;38.75;19.42;;;4.80;99.90;;;;;;4982786;28;20229;-82
2023/01/21 12:48:18;;;;;;;42.08;22.80;;;4.90;99.90;;;;;;4988034;28;20205;-81
2023/01/21 12:50:48;;;;;;;39.75;19.10;;;5.00;99.90;;;;;;5004423;28;20233;-81
2023/01/21 12:53:24;;;;;;;46.17;23.17;;;5.00;99.90;;;;;;4984294;28;20189;-79
2023/01/21 12:56:06;;;;;;;43.25;24.27;;;5.10;99.90;;;;;;4986311;28;20194;-81